Tiempo atmosférico en la estación meteorológica de Villardeciervos, Zamora (850 m.)



Fecha
DESCASC
Temp. máxima en grados centígrados (hora)
DESCASC
Temp. mínima en grados centígrados (hora)
DESCASC
Temp. media en grados centígrados
DESCASC
Racha de viento máxima en m/sg (hora)
DESCASC
Velocidad máxima media en intervalos de 10 minutos(hora)
DESCASC
Precipitaciones diarias en mm
DESCASC
Precipitaciones de 00:00 a 06:00 en mm
DESCASC
Precipitaciones de 06:00 a 12:00 en mm
DESCASC
Precipitaciones de 12:00 a 18:00 en mm
DESCASC
Precipitaciones de 18:00 a 24:00 en mm
DESCASC
25-04-2019 8.9 (16:00) 1 (02:50) 4.9 17.78 (17:30) 8.61 (13:40) 11.8 6.4 2 3 0.4
24-04-2019 9.7 (14:30) 0.5 (08:10) 5.1 19.17 (19:20) 8.61 (19:30) 19.8 2 6.6 4.8 6.4
23-04-2019 10.7 (17:40) 3.5 (23:10) 7.1 13.61 (13:40) 7.5 (13:40) 2.8 1.2 0.2 1.2 0.2
22-04-2019 17.1 (15:40) 1.5 (00:00) 9.3 10.56 (16:00) 6.11 (18:10) 1 0 0 0 1
21-04-2019 18.7 (15:20) 5.7 (00:00) 12.2 12.5 (12:50) 6.94 (16:40) 0.2 0 0 0 0.2
20-04-2019 22.1 (17:00) 5 (00:00) 13.6 12.5 (15:00) 5.83 (11:40) 0 0 0 0 0
19-04-2019 14.6 (15:10) 6.9 (00:00) 10.8 15 (17:30) 7.5 (18:20) 7.6 6.4 1.2 0 0
18-04-2019 14.7 (16:50) 7 (00:00) 10.8 8.61 (02:20) 4.72 (19:10) 5.4 2 2.2 0 1.2
17-04-2019 16.7 (17:00) 3.3 (00:00) 10 14.44 (17:00) 7.5 (17:00) 9.6 0 0 0 9.6
16-04-2019 -- (--) -- (--) -- -- (--) -- (--) -- 0 -- -- --
15-04-2019 15.7 (13:40) 6.4 (00:00) 11 16.94 (14:20) 9.17 (14:30) 9.4 0 9.2 0 0.2
14-04-2019 19 (17:10) 8.6 (00:00) 13.8 9.72 (02:30) 5.83 (00:20) 0 0 0 0 0
13-04-2019 19.5 (17:10) 3.3 (00:00) 11.4 10 (14:40) 5 (23:59) 0 0 0 0 0
12-04-2019 18 (18:10) -2 (05:00) 8 6.67 (14:50) 4.17 (22:30) 0 0 0 0 0
11-04-2019 -- (--) -- (--) -- -- (--) -- (--) -- -- -- 0 0
10-04-2019 -- (--) -- (--) -- -- (--) -- (--) -- 0 -- -- --
09-04-2019 10.2 (17:40) 2.1 (00:00) 6.1 13.89 (06:50) 6.39 (23:30) 8.2 1.8 5.6 0 0.8
08-04-2019 12.5 (16:10) 4.3 (00:00) 8.4 16.67 (08:00) 6.94 (11:50) 6.2 2.8 0 0 3.4
07-04-2019 8.1 (13:20) 0.9 (00:00) 4.5 17.22 (17:30) 6.67 (00:30) 7 0 0 1.6 5.4
06-04-2019 7.5 (17:50) 1 (00:00) 4.3 16.67 (15:40) 8.33 (16:20) 4.2 1.4 2.6 0.2 0
05-04-2019 9.1 (17:00) 1.2 (00:00) 5.2 17.22 (17:00) 9.17 (17:10) 3.6 3.6 0 0 0
04-04-2019 8.2 (14:30) -2 (-00:0) 3.1 15 (14:50) 7.5 (14:50) 5.4 0 0 0.2 5.2
03-04-2019 11.6 (15:00) -1.6 (08:10) 5 13.89 (17:20) 7.78 (17:20) 0 0 0 0 0
02-04-2019 17.8 (17:40) -0.6 (-00:0) 8.6 13.33 (18:50) 6.67 (19:00) 0 0 0 0 0
01-04-2019 16.9 (15:30) -0.1 (00:00) 8.4 10.83 (22:40) 6.11 (16:00) 0.2 0 0 0.2 0
31-03-2019 18.3 (15:10) 1.3 (00:00) 9.8 9.17 (13:40) 4.17 (11:50) 0 0 0 0 0
30-03-2019 17.5 (13:30) 3 (00:00) 10.3 9.17 (16:30) 5 (16:40) 0 0 0 0 0
29-03-2019 19 (16:10) -2.7 (-00:0) 8.1 8.61 (14:10) 4.17 (16:20) 0 0 0 0 0
28-03-2019 18.2 (15:40) -0.6 (-00:0) 8.8 11.39 (11:10) 5.56 (11:10) 0 0 0 0 0
27-03-2019 19.2 (15:50) -0.8 (-00:0) 9.2 14.17 (13:20) 6.11 (12:50) 0 0 0 0 0

Gráficas

Temp. máximas Temp. mínimas Temp. medias Precipitaciones Rachas de viento máximas Velocidades máximas media en intervalos de 10 minutos

Datos horarios

Fecha y hora oficial Temperatura (ºC) Velocidad del viento (km/h) Dirección del viento Racha (km/h) Dirección de racha Precipitación (mm) Presión (hPa) Tendencia (hPa) Humedad (%)
2019-04-25 23:00:00 5.5 18 Sudoeste 45 Sudoeste 0 917.3 2.3 86
2019-04-25 22:00:00 5.5 19 Sudoeste 38 Oeste 0 916.2 1.7 84
2019-04-25 21:00:00 4.8 18 Sudoeste 40 Sudoeste 0 915.3 1.5 84
2019-04-25 20:00:00 5.3 22 Sudoeste 45 Sudoeste 0 915 2.1 80
2019-04-25 19:00:00 5.1 21 Sudoeste 46 Oeste 0.4 914.5 2.7 82
2019-04-25 18:00:00 5.1 19 Oeste 64 Sudoeste 1.8 913.8 1.8 84
2019-04-25 17:00:00 6.6 24 Sudoeste 52 Sudoeste 1.2 912.9 1.3 75
2019-04-25 16:00:00 8.4 27 Sudoeste 56 Sudoeste 0 911.8 0.4 65
2019-04-25 15:00:00 6.9 24 Sudoeste 55 Sudoeste 0 912 1 75
2019-04-25 14:00:00 7.7 27 Sudoeste 56 Sudoeste 0 911.6 1.2 66
2019-04-25 13:00:00 6.1 22 Sudoeste 55 Sudoeste 0 911.4 1.8 75
2019-04-25 12:00:00 5.8 20 Sudoeste 52 Sudoeste 0.2 911 2.1 75
2019-04-25 11:00:00 5 25 Sudoeste 43 Sudoeste 0 910.4 2.4 81
2019-04-25 10:00:00 4.6 25 Sudoeste 46 Sur 0 909.6 2.4 80
2019-04-25 09:00:00 3.3 20 Sudoeste 43 Sudoeste 0 908.9 1.9 86
2019-04-25 08:00:00 2.4 14 Sudoeste 43 Sudoeste 0.2 908 1.2 88
2019-04-25 07:00:00 1 13 Sudoeste 33 Sudoeste 1.6 907.2 0.7 89
2019-04-25 06:00:00 1.7 18 Sudoeste 37 Sudoeste 1.6 907 0.4 89
2019-04-25 05:00:00 2.2 21 Sudoeste 42 Sudoeste 0.6 906.8 0.7 88
2019-04-25 04:00:00 1.9 14 Sudoeste 32 Sudoeste 0 906.5 1 88
2019-04-25 03:00:00 1.2 13 Sudoeste 35 Oeste 4.2 906.6 1.6 90
2019-04-25 02:00:00 4.1 16 Sudoeste 35 Sudoeste 0 906.1 1.1 87
2019-04-25 01:00:00 4 19 Sudoeste 37 Sudoeste 0 905.5 1.4 86
2019-04-25 00:00:00 4.2 18 Sudoeste 39 Sur 0.4 905 1.8 85
2019-04-24 23:00:00 4.5 17 Oeste 42 Sudoeste 0.8 905 2.2 86
2019-04-24 22:00:00 5.3 18 Sudoeste 38 Sudoeste 1.2 904.1 1.7 85
2019-04-24 21:00:00 5.8 19 Sudoeste 42 Oeste 0.8 903.2 1.3 86
2019-04-24 20:00:00 5.9 20 Sudoeste 69 Sudoeste 2.8 902.8 1 84
2019-04-24 19:00:00 7.2 22 Sudoeste 46 Sudoeste 0.4 902.4 0.9 82
2019-04-24 18:00:00 7.2 17 Sudoeste 36 Sudoeste 1 901.9 0.9 85
2019-04-24 17:00:00 6.9 14 Oeste 47 Noroeste 0.4 901.8 0.9 84
2019-04-24 16:00:00 7.7 26 Sudoeste 57 Sudoeste 2 901.5 0.9 83
2019-04-24 15:00:00 8.7 24 Sudoeste 51 Sudoeste 0.4 901 0.1 79
2019-04-24 14:00:00 8.5 19 Oeste 47 Sudoeste 0.8 900.9 0.3 84
2019-04-24 13:00:00 6.3 18 Sudoeste 34 Sudoeste 0.2 900.6 -0.1 89
2019-04-24 12:00:00 3.7 5 Noroeste 13 Oeste 0.8 900.9 0.1 92
2019-04-24 11:00:00 1.6 10 Noroeste 17 Noroeste 0.2 900.6 -0.2 92
2019-04-24 10:00:00 1.6 6 Sudoeste 18 Sudoeste 0.4 900.7 -0.4 90
2019-04-24 09:00:00 1 7 Sur 26 Sur 1.4 900.8 -1 90
2019-04-24 08:00:00 0.6 9 Sur 23 Sur 2 900.8 -1.8 91
2019-04-24 07:00:00 1.2 6 Sur 27 Sur 1.8 901.1 -1.7 89
2019-04-24 06:00:00 2 15 Sur 32 Sudoeste 1.2 901.8 -1.5 89
2019-04-24 05:00:00 2.4 11 Sur 34 Sudoeste 0.6 902.6 -1.4 88
2019-04-24 04:00:00 3 16 Sur 37 Sur 0 902.8 -1.2 88
2019-04-24 03:00:00 3.1 13 Sudoeste 39 Sudoeste 0 903.3 -0.5 87
2019-04-24 02:00:00 3 12 Sudoeste 35 Sudoeste 0.2 904 0.6 87
2019-04-24 01:00:00 3 15 Sudoeste 32 Sudoeste 0 904 1.1 84
2019-04-24 00:00:00 3.5 12 Sudoeste 33 Sudoeste 0 903.8 1.5 81
2019-04-23 23:00:00 3.6 15 Sudoeste 29 Sudoeste 0 903.4 1.9 79
2019-04-23 22:00:00 4.1 14 Sudoeste 26 Sudoeste 0 902.9 1.5 77
2019-04-23 21:00:00 5.4 14 Oeste 36 Sudoeste 0 902.3 1.8 68
2019-04-23 20:00:00 7.5 18 Sudoeste 45 Sudoeste 0 901.5 1.3 62
2019-04-23 19:00:00 6.4 15 Oeste 39 Oeste 0.2 901.4 1.1 65
2019-04-23 18:00:00 9.8 15 Oeste 39 Oeste 0 900.5 0.6 50
2019-04-23 17:00:00 10.3 18 Oeste 37 Sudoeste 0 900.2 0 47
2019-04-23 16:00:00 6.7 17 Sudoeste 47 Oeste 0.4 900.3 0.6 76
2019-04-23 15:00:00 8.2 18 Sudoeste 36 Sudoeste 0.4 899.9 0.1 65
2019-04-23 14:00:00 5.7 18 Sudoeste 49 Sudoeste 0.4 900.2 0.5 81
2019-04-23 13:00:00 9 19 Sudoeste 46 Sudoeste 0 899.7 0.3 59
2019-04-23 12:00:00 7.6 21 Sudoeste 36 Sudoeste 0 899.8 0.5 68
2019-04-23 11:00:00 6.4 19 Sudoeste 41 Sudoeste 0 899.7 1 71
2019-04-23 10:00:00 6 19 Sudoeste 32 Sudoeste 0 899.4 0.9 75
2019-04-23 09:00:00 4.1 8 Oeste 23 Sudoeste 0.2 899.3 0.7 84
2019-04-23 08:00:00 4.2 10 Oeste 24 Sudoeste 0 898.7 -0.2 86
2019-04-23 07:00:00 4.3 11 Sudoeste 32 Sudoeste 0 898.5 -0.5 89
2019-04-23 06:00:00 4.4 16 Sudoeste 28 Sudoeste 0 898.6 -1.2 86
2019-04-23 05:00:00 4.9 7 Sudoeste 17 Sudoeste 0.2 898.9 -0.8 86
2019-04-23 04:00:00 5.1 10 Oeste 24 Oeste 0 899 -1.3 84
2019-04-23 03:00:00 5.8 16 Oeste 36 Oeste 0.6 899.8 -1 81
2019-04-23 02:00:00 7.7 5 Sudoeste 20 Sudoeste 0.2 899.7 -1.3 82
2019-04-23 01:00:00 7.8 3 Sur 19 Oeste 0.2 900.3 -0.6 81
2019-04-23 00:00:00 8.2 10 Sudoeste 24 Noroeste 0.4 900.8 -0.1 80
2019-04-22 23:00:00 9.1 10 Oeste 36 Sudoeste 0.4 901 0.2 82
2019-04-22 22:00:00 10 8 Oeste 36 Sudoeste 0.2 900.9 -0.3 73
2019-04-22 21:00:00 12.7 17 Sudoeste 33 Oeste 0 900.9 -1 62
2019-04-22 20:00:00 14.1 14 Sudoeste 35 Sur 0 900.8 -1.7 50
2019-04-22 19:00:00 15.3 17 Sudoeste 33 Sur 0 901.2 -2.2 39
2019-04-22 18:00:00 16.2 18 Sudoeste 37 Sudoeste 0 901.9 -2.2 34
2019-04-22 17:00:00 16.5 15 Sudoeste 35 Sudoeste 0 902.5 -2.6 41
2019-04-22 16:00:00 16.5 17 Sudoeste 38 Sudoeste 0 903.4 -2.7 43
2019-04-22 15:00:00 15.7 18 Sudoeste 33 Sudoeste 0 904.1 -2.8 45
2019-04-22 14:00:00 14.3 16 Sudoeste 33 Sudoeste 0 905.1 -2.5 53
2019-04-22 13:00:00 14 11 Sudoeste 28 Sudoeste 0 906.1 -2 53
2019-04-22 12:00:00 13.3 8 Sur 23 Sur 0 906.9 -1.3 55
2019-04-22 11:00:00 10.3 2 Norte 6 Norte 0 907.6 -0.9 74
2019-04-22 10:00:00 7.5 3 Norte 5 Norte 0 908.1 -0.4 89
2019-04-22 09:00:00 4.6 2 Sudeste 5 Este 0 908.2 -1 91
2019-04-22 08:00:00 2.7 2 Nordeste 12 Sur 0 908.5 -1.5 92
2019-04-22 07:00:00 1.6 4 Sur 8 Sudeste 0 908.5 -2.4 90
2019-04-22 06:00:00 2.6 0 Calma 7 Sudeste 0 909.2 -2.5 89
2019-04-22 05:00:00 3.3 0 Calma 6 Sur 0 910 -2.4 90
2019-04-22 04:00:00 4 0 Calma 7 Sudoeste 0 910.9 -1.9 89
2019-04-22 03:00:00 4.8 5 Sudoeste 6 Sudoeste 0 911.7 -1.6 89
2019-04-22 02:00:00 4.9 4 Sur 8 Sudeste 0 912.4 -1.2 86
2019-04-22 01:00:00 7.3 3 Noroeste 6 Sudeste 0 912.8 -0.7 82
2019-04-22 00:00:00 8.2 4 Sur 7 Sudeste 0 913.3 0.3 83
2019-04-21 23:00:00 8.6 2 Sur 6 Sudoeste 0 913.6 0.8 79
2019-04-21 22:00:00 9.3 2 Sur 5 Sudoeste 0 913.5 1.1 76
2019-04-21 21:00:00 10.9 4 Sudeste 27 Sur 0 913 0 70
2019-04-21 20:00:00 11.9 14 Sudeste 33 Sudeste 0.2 912.8 -1.1 67
2019-04-21 19:00:00 17.4 12 Norte 28 Norte 0 912.4 -1.9 39
2019-04-21 18:00:00 17.2 6 Norte 20 Oeste 0 913 -2 44
2019-04-21 17:00:00 13.6 15 Noroeste 44 Norte 0 913.9 -1.8 58
2019-04-21 16:00:00 17.2 10 Oeste 30 Nordeste 0 914.3 -2.4 44
2019-04-21 15:00:00 18 9 Nordeste 36 Este 0 915 -2.2 37
2019-04-21 14:00:00 17.4 17 Este 38 Este 0 915.7 -1.9 41
2019-04-21 13:00:00 16.6 15 Nordeste 45 Este 0 916.7 -1.3 38
2019-04-21 12:00:00 15.7 14 Este 33 Nordeste 0 917.2 -1.2 41
2019-04-21 11:00:00 13.8 11 Este 25 Este 0 917.6 -0.9 54
2019-04-21 10:00:00 11.5 9 Este 18 Este 0 918 -0.6 61
2019-04-21 09:00:00 8.5 2 Este 5 Sur 0 918.4 -0.5 71
2019-04-21 08:00:00 5.8 2 Sur 6 Sur 0 918.5 -0.8 76
2019-04-21 07:00:00 7.1 0 Calma 8 Este 0 918.6 -0.8 71
2019-04-21 06:00:00 8.7 3 Nordeste 10 Nordeste 0 918.9 -1.1 64
2019-04-21 05:00:00 8.7 3 Nordeste 13 Este 0 919.3 -1.2 63
2019-04-21 04:00:00 8.9 3 Este 17 Este 0 919.4 -1.4 61
2019-04-21 03:00:00 8.6 6 Este 15 Nordeste 0 920 -1.1 60
2019-04-21 02:00:00 8.1 5 Este 10 Este 0 920.5 -0.3 65
2019-04-21 01:00:00 9.3 4 Nordeste 14 Nordeste 0 920.8 0.5 60
2019-04-21 00:00:00 10.5 5 Este 20 Nordeste 0 921.1 1.3 56
2019-04-20 23:00:00 11.7 8 Norte 15 Nordeste 0 920.8 1.5 49
2019-04-20 22:00:00 13.7 5 Este 25 Este 0 920.3 0.8 44
2019-04-20 21:00:00 16.7 13 Este 32 Nordeste 0 919.8 0.1 35
2019-04-20 20:00:00 18.6 14 Este 38 Este 0 919.3 -0.9 31
2019-04-20 19:00:00 21 15 Este 36 Este 0 919.5 -1.4 27
2019-04-20 18:00:00 21.6 19 Este 38 Este 0 919.7 -1.9 25
2019-04-20 17:00:00 21.9 15 Este 39 Nordeste 0 920.2 -2.2 24
2019-04-20 16:00:00 21.4 19 Este 44 Este 0 920.9 -2 26
2019-04-20 15:00:00 20.6 20 Este 45 Este 0 921.6 -1.6 32
2019-04-20 14:00:00 19.2 19 Nordeste 45 Este 0 922.4 -1 34
2019-04-20 13:00:00 18.3 16 Este 36 Este 0 922.9 -0.7 43
2019-04-20 12:00:00 16.9 18 Este 40 Este 0 923.2 -0.2 50
2019-04-20 11:00:00 15.3 18 Este 38 Este 0 923.4 0.1 47
2019-04-20 10:00:00 13.1 11 Este 23 Este 0 923.6 0 57
2019-04-20 09:00:00 8 2 Norte 7 Nordeste 0 923.4 -0.7 82
2019-04-20 08:00:00 5.2 0 Calma 6 Nordeste 0 923.3 -1.1 86
2019-04-20 07:00:00 5.7 3 Norte 8 Noroeste 0 923.6 -0.5 85
2019-04-20 06:00:00 6.6 0 Calma 9 Nordeste 0 924.1 -0.3 83
2019-04-20 05:00:00 7.3 5 Noroeste 8 Norte 0 924.4 0 83
2019-04-20 04:00:00 8.3 4 Sur 10 Sudeste 0 924.1 -0.3 80
2019-04-20 03:00:00 8.7 7 Sur 13 Este 0 924.4 0.2 79
2019-04-20 02:00:00 9.3 3 Sudeste 14 Sur 0 924.4 0.8 76
2019-04-20 01:00:00 10.2 3 Sur 16 Este 0 924.4 1.4 71
2019-04-20 00:00:00 11.2 7 Este 27 Este 0 924.2 1.7 66
2019-04-19 23:00:00 11.9 13 Este 36 Este 0 923.6 1.7 61
2019-04-19 22:00:00 12.3 16 Nordeste 40 Nordeste 0 923 1.5 61
2019-04-19 21:00:00 12.8 16 Nordeste 36 Nordeste 0 922.5 1.3 64
2019-04-19 20:00:00 12.6 9 Nordeste 43 Este 0 921.9 1.3 63
2019-04-19 19:00:00 12.7 17 Este 52 Este 0 921.5 1.2 66
2019-04-19 18:00:00 12.7 22 Nordeste 54 Nordeste 0 921.2 0.7 66
2019-04-19 17:00:00 14 24 Nordeste 46 Nordeste 0 920.6 0.1 59
2019-04-19 16:00:00 13.6 13 Nordeste 44 Este 0 920.3 -0.3 61
2019-04-19 15:00:00 13.5 19 Este 40 Este 0 920.5 0.2 62
2019-04-19 14:00:00 11.9 15 Nordeste 36 Este 0 920.5 0.8 70
2019-04-19 13:00:00 11.3 16 Nordeste 39 Nordeste 0 920.6 2 75
2019-04-19 12:00:00 9.6 14 Este 31 Nordeste 0.2 920.3 2.3 86
2019-04-19 11:00:00 8 14 Este 32 Nordeste 0 919.7 2.7 90
2019-04-19 10:00:00 7.8 16 Este 31 Este 0 918.6 2.6 91
2019-04-19 09:00:00 7.5 12 Nordeste 32 Este 0.4 918 2.6 91
2019-04-19 08:00:00 7.5 16 Este 30 Este 0 917 1.4 91
2019-04-19 07:00:00 7.5 15 Este 35 Este 0.6 916 0 91
2019-04-19 06:00:00 7.4 13 Nordeste 31 Norte 1.4 915.4 -1 92
2019-04-19 05:00:00 7 6 Norte 26 Norte 1.6 915.6 -1.1 91
2019-04-19 04:00:00 7.3 13 Norte 30 Nordeste 0.8 916 -1 91
2019-04-19 03:00:00 7.5 17 Norte 32 Nordeste 1.4 916.4 -0.9 91
2019-04-19 02:00:00 7.6 11 Norte 22 Norte 0.6 916.7 -0.4 90
2019-04-19 01:00:00 7.8 2 Norte 17 Norte 0.6 917 0.1 89
2019-04-19 00:00:00 8.1 9 Norte 23 Norte 0.8 917.3 0.9 91
2019-04-18 23:00:00 8.3 15 Norte 28 Nordeste 0.2 917.1 1.3 88
2019-04-18 22:00:00 8.6 7 Norte 20 Nordeste 0.2 916.9 1.6 86
2019-04-18 21:00:00 9.3 9 Nordeste 24 Este 0 916.4 1.6 81
2019-04-18 20:00:00 10.3 12 Este 29 Este 0 915.8 0.8 72
2019-04-18 19:00:00 12.2 16 Este 28 Nordeste 0 915.3 0 67
2019-04-18 18:00:00 14 8 Nordeste 19 Norte 0 914.8 -0.9 50
2019-04-18 17:00:00 14.5 3 Nordeste 13 Este 0 915 -0.9 53
2019-04-18 16:00:00 13.5 6 Norte 15 Este 0 915.3 -1.1 59
2019-04-18 15:00:00 12.3 12 Este 22 Este 0 915.7 -0.7 62
2019-04-18 14:00:00 12.8 5 Nordeste 11 Nordeste 0 915.9 -0.5 64
2019-04-18 13:00:00 11.8 6 Nordeste 17 Nordeste 0 916.4 0.4 69
2019-04-18 12:00:00 9.6 5 Noroeste 14 Oeste 1 916.4 0.8 80
2019-04-18 11:00:00 8.4 3 Sudoeste 6 Sudoeste 1.2 916.4 1.3 83
2019-04-18 10:00:00 8.2 3 Noroeste 8 Noroeste 0 916 1.7 87
2019-04-18 09:00:00 7.7 3 Este 6 Este 0 915.6 1.5 88
2019-04-18 08:00:00 7.5 0 Calma 16 Sudoeste 0 915.1 1.1 87
2019-04-18 07:00:00 7.5 8 Sur 22 Sudoeste 0 914.3 0.3 86
2019-04-18 06:00:00 7.5 9 Sur 19 Sur 0 914.1 -0.2 90
2019-04-18 05:00:00 7.1 5 Sudoeste 14 Sudoeste 0.6 914 0.2 89
2019-04-18 04:00:00 7.1 8 Sudoeste 22 Sudoeste 0.2 914 0.6 87
2019-04-18 03:00:00 7.3 8 Sudoeste 31 Sur 1.2 914.3 1.3 87
2019-04-18 02:00:00 7.9 8 Sudoeste 21 Sudoeste 0 913.8 1.4 88
2019-04-18 01:00:00 8.2 5 Sur 19 Sudoeste 0 913.4 1.6 88
2019-04-18 00:00:00 8.3 6 Sur 22 Sur 0 913 1.3 88
2019-04-17 23:00:00 8.2 12 Sur 25 Sur 1.4 912.4 0.7 87
2019-04-17 22:00:00 8.8 11 Sur 37 Sur 2.6 911.8 1.3 85
2019-04-17 21:00:00 9.6 18 Sur 39 Sur 3.8 911.7 1.5 83
2019-04-17 20:00:00 10.6 18 Sudoeste 42 Sur 1.8 911.7 1.4 85
2019-04-17 19:00:00 15.3 16 Sur 49 Sur 0 910.5 -0.4 44
2019-04-17 18:00:00 16.1 24 Sur 45 Sudeste 0 910.2 -1.4 40
2019-04-17 17:00:00 16.6 27 Sudeste 52 Sudeste 0 910.3 -2.2 38
2019-04-17 16:00:00 16.5 17 Sur 37 Sudeste 0 910.9 -2.3 44
2019-04-17 15:00:00 16.1 17 Sudeste 35 Sudeste 0 911.6 -1.9 46
2019-04-17 14:00:00 15.1 14 Sur 36 Sudoeste 0 912.5 -0.6 50
2019-04-17 13:00:00 13.9 12 Sur 37 Sur 0 913.2 0 56
2019-04-17 12:00:00 13.6 17 Sudoeste 33 Sudoeste 0 913.5 0.3 53
2019-04-17 11:00:00 13.3 4 Este 10 Nordeste 0 913.1 0 56
2019-04-17 10:00:00 9.2 3 Nordeste 6 Este 0 913.2 0.3 69
2019-04-17 09:00:00 5.5 3 Sudeste 7 Sur 0 913.2 0.5 83
2019-04-17 08:00:00 4.4 2 Noroeste 5 Sur 0 913.1 -0.3 84
2019-04-17 07:00:00 3.3 2 Sudeste 5 Sudeste 0 912.9 -0.6 85
2019-04-17 06:00:00 3.5 0 Calma 6 Sur 0 912.7 -1.3 85
2019-04-17 05:00:00 3.7 3 Sur 5 Sur 0 913.4 -1.2 84
2019-04-17 04:00:00 4 0 Calma 5 Nordeste 0 913.5 -1.7 82
2019-04-17 03:00:00 4.8 0 Calma 5 Sudoeste 0 914 -1.8 78
2019-04-17 02:00:00 5.8 0 Calma 5 Sudoeste 0 914.6 -1.7 73
2019-04-17 01:00:00 6.3 0 Calma 6 Sudeste 0 915.2 -1.1 71
2019-04-17 00:00:00 8.7 3 Oeste 9 Sudoeste 0 915.8 -0.4 64
2019-04-16 23:00:00 10.2 7 Sur 11 Sudoeste 0 916.3 0 58
2019-04-16 22:00:00 11.9 6 Sur 9 Sur 0 916.3 -0.3 52
2019-04-16 21:00:00 14.5 4 Sudoeste -- -- -- 916.2 -- 47
2019-04-16 20:00:00 16.7 9 Sur -- -- -- 916.3 -- 35
2019-04-16 19:00:00 17.1 -- -- -- -- -- 916.6 -- 32
2019-04-16 18:00:00 -- -- -- -- -- -- -- -- --
2019-04-16 17:00:00 -- -- -- -- -- -- -- -- --
2019-04-16 16:00:00 -- -- -- -- -- -- -- -- --
2019-04-16 15:00:00 -- -- -- -- -- -- -- -- --
2019-04-16 14:00:00 -- -- -- -- -- -- -- -- --
2019-04-16 13:00:00 -- -- -- -- -- -- -- -- --
2019-04-16 12:00:00 -- -- -- -- -- -- -- -- --
2019-04-16 11:00:00 -- -- -- -- -- -- -- -- --
2019-04-16 10:00:00 -- -- -- -- -- -- -- -- --
2019-04-16 09:00:00 2.3 2 Nordeste 6 Sudeste 0 921 0.1 86
2019-04-16 08:00:00 -1.2 4 Sudeste 6 Sudeste 0 920.8 0.4 91
2019-04-16 07:00:00 -0.2 3 Sudeste 8 Sudoeste 0 920.5 0.3 89
2019-04-16 06:00:00 0.7 3 Noroeste 13 Sur 0 920.9 0.3 87
2019-04-16 05:00:00 2.1 6 Sudoeste 13 Sudoeste 0 920.4 -0.2 91
2019-04-16 04:00:00 0.9 4 Sudoeste 10 Sudeste 0 920.2 0.2 88
2019-04-16 03:00:00 2 3 Noroeste 8 Noroeste 0 920.6 0.7 86
2019-04-16 02:00:00 2.8 5 Sudeste 12 Este 0 920.6 1.2 80
2019-04-16 01:00:00 4.8 3 Noroeste 19 Sudoeste 0 920 1.6 73
2019-04-16 00:00:00 6.7 13 Sudoeste 19 Sudoeste 0 919.9 2.4 70
2019-04-15 23:00:00 7.8 11 Sudoeste 22 Sudoeste 0 919.4 2.4 68
2019-04-15 22:00:00 8.6 13 Oeste 27 Oeste 0 918.4 2.1 69
2019-04-15 21:00:00 9.8 15 Sudoeste 32 Oeste 0 917.5 2.1 68
2019-04-15 20:00:00 11.6 17 Oeste 41 Oeste 0 917 2 63
2019-04-15 19:00:00 11.3 18 Oeste 34 Noroeste 0.2 916.3 1.3 70
2019-04-15 18:00:00 12.6 17 Oeste 46 Sudoeste 0 915.4 0.5 68
2019-04-15 17:00:00 12.4 23 Oeste 44 Sudoeste 0 915 1.4 66
2019-04-15 16:00:00 10.7 17 Oeste 55 Oeste 0 915 1.2 74
2019-04-15 15:00:00 10.5 24 Sudoeste 61 Sudoeste 0 914.9 0.9 74
2019-04-15 14:00:00 15.3 29 Sudoeste 59 Sudoeste 0 913.6 0.3 54
2019-04-15 13:00:00 15 24 Sudoeste 53 Sudoeste 0 913.8 0.5 67
2019-04-15 12:00:00 14.3 24 Sudoeste 55 Sudoeste 1.8 914 0.2 78
2019-04-15 11:00:00 12.6 26 Sudoeste 52 Sudoeste 6.6 913.3 -0.7 84
2019-04-15 10:00:00 13.9 15 Sur 42 Sur 0.6 913.3 -1.2 80
2019-04-15 09:00:00 13 14 Sur 32 Sur 0.2 913.8 -1.3 81
2019-04-15 08:00:00 13 12 Sur 23 Sudeste 0 914 -1.7 80
2019-04-15 07:00:00 11.2 2 Este 7 Sudeste 0 914.5 -2 85
2019-04-15 06:00:00 11 4 Norte 6 Nordeste 0 915.1 -2 84
2019-04-15 05:00:00 10.9 2 Norte 7 Sudeste 0 915.7 -2 86
2019-04-15 04:00:00 10.5 0 Calma 6 Sudeste 0 916.5 -1.5 85
2019-04-15 03:00:00 11 3 Sur 6 Este 0 917.1 -1.2 82
2019-04-15 02:00:00 11.1 0 Calma 4 Norte 0 917.7 -0.8 83
2019-04-15 01:00:00 11.3 2 Noroeste 4 Nordeste 0 918 -0.4 82
2019-04-15 00:00:00 12 3 Sur 10 Sudoeste 0 918.3 0 79
2019-04-14 23:00:00 11.8 6 Sur 13 Sur 0 918.5 0.1 80
2019-04-14 22:00:00 12.9 5 Sur 8 Sur 0 918.4 -0.1 74
2019-04-14 21:00:00 15.5 5 Sudoeste 19 Sur 0 918.3 -0.3 65
2019-04-14 20:00:00 16.8 11 Sur 26 Sur 0 918.4 -0.8 61
2019-04-14 19:00:00 17.6 15 Sudoeste 31 Sudoeste 0 918.5 -1.3 56
2019-04-14 18:00:00 17.8 15 Sur 28 Sudoeste 0 918.6 -1.5 51
2019-04-14 17:00:00 18.9 15 Sur 30 Sudoeste 0 919.2 -1.1 51
2019-04-14 16:00:00 17.7 17 Sudoeste 31 Sudoeste 0 919.8 -0.7 54
2019-04-14 15:00:00 16.9 14 Sudoeste 26 Sudoeste 0 920.1 -0.5 60
2019-04-14 14:00:00 16 13 Sudoeste 28 Sudoeste 0 920.3 -0.2 66
2019-04-14 13:00:00 16.8 12 Sudoeste 28 Sudoeste 0 920.5 0.1 60
2019-04-14 12:00:00 16.4 13 Sudoeste 26 Sudoeste 0 920.6 0.2 64
2019-04-14 11:00:00 16.2 8 Sudoeste 19 Sudoeste 0 920.5 0.4 63
2019-04-14 10:00:00 13.4 13 Sudoeste 24 Sudoeste 0 920.4 0.5 75
2019-04-14 09:00:00 10.6 4 Sudeste 13 Sudoeste 0 920.4 0.4 87
2019-04-14 08:00:00 8.8 3 Sudoeste 11 Sudeste 0 920.1 -0.1 88
2019-04-14 07:00:00 9.6 5 Norte 19 Sudoeste 0 919.9 -0.6 84
2019-04-14 06:00:00 10.2 14 Sudoeste 28 Sudoeste 0 920 -0.6 85
2019-04-14 05:00:00 10.6 20 Sudoeste 29 Sudoeste 0 920.2 -1.1 85
2019-04-14 04:00:00 10.8 19 Sudoeste 30 Sudoeste 0 920.5 -0.8 85
2019-04-14 03:00:00 11.2 17 Sudoeste 35 Sudoeste 0 920.6 -0.7 83
2019-04-14 02:00:00 11.6 17 Sudoeste 35 Sudoeste 0 921.3 0 79
2019-04-14 01:00:00 11.6 19 Sudoeste 34 Sudoeste 0 921.3 0.1 79
2019-04-14 00:00:00 11.9 18 Sudoeste 31 Sudoeste 0 921.3 0.6 76
2019-04-13 23:00:00 12.8 10 Oeste 24 Oeste 0 921.3 1 64
2019-04-13 22:00:00 13.6 15 Sudoeste 28 Sudoeste 0 921.2 1 58
2019-04-13 21:00:00 15 14 Oeste 30 Sudoeste 0 920.7 0.6 49
2019-04-13 20:00:00 16.2 14 Oeste 27 Oeste 0 920.3 0 48
2019-04-13 19:00:00 17 14 Oeste 32 Sudoeste 0 920.2 -0.4 39
2019-04-13 18:00:00 18 13 Sudoeste 29 Sudoeste 0 920.1 -0.8 38
2019-04-13 17:00:00 19.3 14 Oeste 32 Sudoeste 0 920.3 -1 34
2019-04-13 16:00:00 19.2 14 Sudoeste 33 Sudoeste 0 920.6 -1 33
2019-04-13 15:00:00 18.1 14 Sudoeste 36 Sur 0 920.9 -1 32
2019-04-13 14:00:00 16.6 13 Oeste 27 Sur 0 921.3 -0.8 39
2019-04-13 13:00:00 16.8 8 Sudoeste 27 Sur 0 921.6 -0.5 39
2019-04-13 12:00:00 16 4 Norte 12 Este 0 921.9 -0.3 41
2019-04-13 11:00:00 11.9 3 Nordeste 14 Este 0 922.1 0.3 50
2019-04-13 10:00:00 10.1 5 Este 10 Este 0 922.1 0.5 51
2019-04-13 09:00:00 5.3 2 Sudeste 6 Norte 0 922.2 0.9 81
2019-04-13 08:00:00 4.1 2 Sudoeste 5 Este 0 921.8 0.6 82
2019-04-13 07:00:00 4.4 4 Sur 9 Nordeste 0 921.6 0.2 81
2019-04-13 06:00:00 3.8 5 Norte 7 Nordeste 0 921.3 -0.3 82
2019-04-13 05:00:00 3.6 0 Calma 5 Sur 0 921.2 -0.5 81
2019-04-13 04:00:00 3.9 2 Este 6 Sudeste 0 921.4 -0.3 79
2019-04-13 03:00:00 4.2 3 Noroeste 5 Norte 0 921.6 0.2 76
2019-04-13 02:00:00 5.1 4 Norte 8 Norte 0 921.7 0.6 69
2019-04-13 01:00:00 6.7 0 Calma 3 Este 0 921.7 0.9 64
2019-04-13 00:00:00 8.5 5 Noroeste 21 Sudoeste 0 921.4 1.2 59
2019-04-12 23:00:00 11.1 15 Sudoeste 23 Sudoeste 0 921.1 1 50
2019-04-12 22:00:00 11.7 12 Sudoeste 19 Sudoeste 0 920.8 0.7 48
2019-04-12 21:00:00 13.3 10 Sudoeste 17 Sur 0 920.2 -0.1 39
2019-04-12 20:00:00 16.8 9 Sudoeste 20 Sudoeste 0 920.1 -0.4 29
2019-04-12 19:00:00 17.7 7 Sudoeste 21 Sudeste 0 920.1 -1.2 29
2019-04-12 18:00:00 17.9 5 Sudeste 14 Norte 0 920.3 -1.4 30
2019-04-12 17:00:00 17.4 7 Oeste 19 Sudeste 0 920.5 -1.6 31
2019-04-12 16:00:00 17.2 4 Sudeste 16 Norte 0 921.3 -1.3 36
2019-04-12 15:00:00 15.1 4 Oeste 24 Sudeste 0 921.7 -1.4 40
2019-04-12 14:00:00 14.8 5 Norte 15 Norte 0 922.1 -1 45
2019-04-12 13:00:00 13 4 Nordeste 14 Noroeste 0 922.6 -0.7 48
2019-04-12 12:00:00 11.1 5 Nordeste 12 Norte 0 923.1 -0.1 58
2019-04-12 11:00:00 9 3 Nordeste 10 Noroeste 0 923.1 0.2 65
2019-04-12 10:00:00 5.8 2 Noroeste 6 Sudeste 0 923.3 0.8 75
2019-04-12 09:00:00 1.1 0 Calma 5 Sudeste 0 923.2 0.4 86
2019-04-12 08:00:00 -1.9 3 Sudoeste 7 Sudeste 0 922.9 0.1 91
2019-04-12 07:00:00 -1.9 4 Sur 7 Sudeste 0 922.5 -0.3 90
2019-04-12 06:00:00 -1.3 2 Sur 5 Sur 0 922.8 -0.3 91
2019-04-12 05:00:00 -2 4 Sur 6 Sudeste 0 922.8 -0.3 88
2019-04-12 04:00:00 -0.7 2 Sur 5 Sudeste 0 922.8 -0.2 84
2019-04-12 03:00:00 1 0 Calma 6 Noroeste 0 923.1 0.3 82
2019-04-12 02:00:00 3 0 Calma 9 Este 0 923.1 0.4 77
2019-04-12 01:00:00 3.2 4 Este 8 Este 0 923 1 73
2019-04-12 00:00:00 4 3 Sudeste 6 Sudeste 0 922.8 1.4 69
2019-04-11 23:00:00 4.4 4 Nordeste 19 Este 0 922.7 1.4 68
2019-04-11 22:00:00 6.4 5 Sur 7 Sur 0 922 0.7 60
2019-04-11 21:00:00 11 3 Sur 6 Norte 0 921.4 0.1 43
2019-04-11 20:00:00 13 2 Este 18 Este 0 921.3 0 36
2019-04-11 19:00:00 13.3 3 Noroeste 9 Norte 0 921.3 -0.2 37
2019-04-11 18:00:00 13.5 8 Norte -- -- -- 921.3 -0.5 36
2019-04-11 17:00:00 13.9 5 Este 15 Este 0 921.3 -0.7 35
2019-04-11 16:00:00 13.8 5 Oeste 14 Oeste 0 921.5 -0.8 37
2019-04-11 15:00:00 12.8 3 Noroeste 18 Sudoeste 0 921.8 -0.9 41
2019-04-11 14:00:00 12.9 9 Sur 25 Sudoeste 0 922 -0.6 38
2019-04-11 13:00:00 12.5 7 Sudoeste 24 Sur 0 922.3 -- 46
2019-04-11 12:00:00 11.5 8 Oeste 26 Sudoeste 0 922.7 -- 45
2019-04-11 11:00:00 9.9 9 Sudoeste -- -- -- 922.6 -- 54
2019-04-11 10:00:00 -- -- -- -- -- -- -- -- --
2019-04-11 09:00:00 -- -- -- -- -- -- -- -- --
2019-04-11 08:00:00 -- -- -- -- -- -- -- -- --
2019-04-11 07:00:00 -- -- -- -- -- -- -- -- --
2019-04-11 06:00:00 -- -- -- -- -- -- -- -- --
2019-04-11 05:00:00 -- -- -- -- -- -- -- -- --
2019-04-11 04:00:00 -- -- -- -- -- -- -- -- --
2019-04-11 03:00:00 -- -- -- -- -- -- -- -- --
2019-04-11 02:00:00 -- -- -- -- -- -- -- -- --
2019-04-11 01:00:00 -- -- -- -- -- -- -- -- --
2019-04-11 00:00:00 -- -- -- -- -- -- -- -- --
2019-04-10 23:00:00 -- -- -- -- -- -- -- -- --
2019-04-10 22:00:00 -- -- -- -- -- -- -- -- --
2019-04-10 21:00:00 -- -- -- -- -- -- -- -- --
2019-04-10 20:00:00 11.9 -- -- -- -- -- 918.7 -- 44
2019-04-10 19:00:00 -- -- -- -- -- -- -- -- --
2019-04-10 18:00:00 -- -- -- -- -- -- -- -- --
2019-04-10 17:00:00 -- -- -- -- -- -- -- -- --
2019-04-10 16:00:00 -- -- -- -- -- -- -- -- --
2019-04-10 15:00:00 -- -- -- -- -- -- -- -- --
2019-04-10 14:00:00 -- -- -- -- -- -- -- -- --
2019-04-10 13:00:00 -- -- -- -- -- -- -- -- --
2019-04-10 12:00:00 -- -- -- -- -- -- -- -- --
2019-04-10 11:00:00 -- -- -- -- -- -- -- -- --
2019-04-10 10:00:00 7.2 20 Sudoeste 36 Sudoeste 0 916.5 0.8 70
2019-04-10 09:00:00 5 17 Sudoeste 34 Sudoeste 0 916.2 0.7 75
2019-04-10 08:00:00 4.5 17 Oeste 31 Sudoeste 0 915.9 0.6 70
2019-04-10 07:00:00 3.2 15 Sudoeste 28 Oeste 0 915.7 0.1 76
2019-04-10 06:00:00 3.1 14 Sudoeste 27 Sudoeste 0 915.5 -0.2 81
2019-04-10 05:00:00 3.6 11 Oeste 32 Sudoeste 0 915.3 -0.5 77
2019-04-10 04:00:00 3.4 19 Sudoeste 31 Sudoeste 0 915.6 -0.4 87
2019-04-10 03:00:00 3.7 18 Sudoeste 35 Oeste 0 915.7 -0.2 84
2019-04-10 02:00:00 3.8 17 Sudoeste 32 Sur 0 915.8 0.1 86
2019-04-10 01:00:00 4.1 18 Sudoeste 38 Sudoeste 0 916 0.3 85
2019-04-10 00:00:00 4.1 19 Sudoeste 37 Sudoeste 0 915.9 0.7 83
2019-04-09 23:00:00 4.5 23 Sudoeste 36 Sudoeste 0 915.7 1.1 83
2019-04-09 22:00:00 5.3 18 Sudoeste 36 Sudoeste 0 915.7 1.3 83
2019-04-09 21:00:00 5.5 11 Sudoeste 28 Sudoeste 0 915.2 1.1 82
2019-04-09 20:00:00 6.5 11 Sudoeste 34 Oeste 0 914.6 0.2 79
2019-04-09 19:00:00 6.9 11 Oeste 37 Sudoeste 0.8 914.4 -0.4 79
2019-04-09 18:00:00 9.6 22 Oeste 41 Sudoeste 0 914.1 -0.8 62
2019-04-09 17:00:00 8.6 13 Sudoeste 42 Sudoeste 0 914.4 -0.3 68
2019-04-09 16:00:00 7.9 17 Oeste 41 Oeste 0 914.8 0.3 72
2019-04-09 15:00:00 8.2 21 Sudoeste 41 Sudoeste 0 914.9 0.6 70
2019-04-09 14:00:00 7.4 15 Oeste 36 Oeste 0 914.7 1.1 70
2019-04-09 13:00:00 7.4 17 Sudoeste 34 Oeste 0 914.5 1.1 72
2019-04-09 12:00:00 3.9 18 Sudoeste 37 Sudoeste 0 914.3 1 84
2019-04-09 11:00:00 2.9 21 Sudoeste 39 Sudoeste 0 913.6 0.9 87
2019-04-09 10:00:00 2.1 22 Sudoeste 37 Oeste 3 913.4 0.8 87
2019-04-09 09:00:00 4 20 Sudoeste 39 Sudoeste 2 913.3 0.4 86
2019-04-09 08:00:00 4.7 23 Sudoeste 47 Sudoeste 0.4 912.7 -0.6 88
2019-04-09 07:00:00 4.6 21 Sudoeste 50 Sudoeste 0.2 912.6 -0.9 87
2019-04-09 06:00:00 4.6 20 Sudoeste 40 Sudoeste 0.8 912.9 -1.2 87
2019-04-09 05:00:00 4.7 14 Sudoeste 38 Sudoeste 0.4 913.3 -1 88
2019-04-09 04:00:00 4.4 16 Sudoeste 29 Sudoeste 0 913.5 -1 88
2019-04-09 03:00:00 4.6 15 Sudoeste 32 Sudoeste 0.6 914.1 -0.6 87
2019-04-09 02:00:00 4.7 13 Sur 31 Sudoeste 0 914.3 -0.3 86
2019-04-09 01:00:00 4.6 12 Sudoeste 29 Sudoeste 0 914.5 -0.1 83
2019-04-09 00:00:00 4.8 12 Sudoeste 21 Oeste 0 914.7 0.4 79
2019-04-08 23:00:00 4.6 12 Sudoeste 25 Oeste 0 914.6 0.4 80
2019-04-08 22:00:00 5 10 Sudoeste 18 Sudoeste 0 914.6 0.2 83
2019-04-08 21:00:00 6 12 Sudoeste 24 Sur 2.8 914.3 -0.6 80
2019-04-08 20:00:00 8.5 7 Sur 18 Sudoeste 0 914.2 -0.1 69
2019-04-08 19:00:00 8.5 12 Sudoeste 43 Sudoeste 0.6 914.4 -0.1 67
2019-04-08 18:00:00 8.7 24 Oeste 46 Oeste 0 914.9 0 65
2019-04-08 17:00:00 10.7 16 Oeste 45 Noroeste 0 914.3 -0.9 53
2019-04-08 16:00:00 12.4 18 Sudoeste 38 Sudoeste 0 914.5 -0.8 40
2019-04-08 15:00:00 11.7 22 Sudoeste 44 Sudoeste 0 914.9 -0.3 40
2019-04-08 14:00:00 9.9 21 Oeste 47 Sudoeste 0 915.2 0.3 47
2019-04-08 13:00:00 9.5 20 Oeste 36 Sudoeste 0 915.3 0.6 70
2019-04-08 12:00:00 9 17 Sudoeste 39 Oeste 0 915.2 0.8 60
2019-04-08 11:00:00 8.5 21 Sudoeste 42 Oeste 0 914.9 1.1 64
2019-04-08 10:00:00 7.6 12 Sudoeste 29 Sudoeste 0 914.7 1.7 69
2019-04-08 09:00:00 6.3 15 Sudoeste 31 Sudoeste 0 914.4 1.9 82
2019-04-08 08:00:00 4.4 10 Oeste 60 Noroeste 0 913.8 1.6 85
2019-04-08 07:00:00 5.5 15 Sudoeste 37 Sudoeste 0 913 0.7 80
2019-04-08 06:00:00 6.4 15 Oeste 35 Oeste 0 912.5 0.3 86
2019-04-08 05:00:00 6.9 18 Oeste 33 Sudoeste 0.2 912.2 0.1 85
2019-04-08 04:00:00 7.3 13 Sudoeste 44 Sudoeste 0.4 912.3 -0.3 90
2019-04-08 03:00:00 7.4 19 Sudoeste 39 Sur 1 912.2 -0.5 90
2019-04-08 02:00:00 4.9 8 Oeste 22 Sudoeste 0.2 912.1 -0.9 92
2019-04-08 01:00:00 4.5 3 Oeste 11 Noroeste 1 912.6 -0.4 92
2019-04-08 00:00:00 4.4 4 Noroeste 9 Noroeste 0.6 912.7 -0.4 92
2019-04-07 23:00:00 4.4 3 Noroeste 12 Oeste 0.6 913 -0.1 91
2019-04-07 22:00:00 4.5 5 Noroeste 9 Oeste 2 913 -0.1 91
2019-04-07 21:00:00 4.8 4 Norte 8 Noroeste 1.2 913.1 -0.2 90
2019-04-07 20:00:00 5.1 3 Norte 6 Norte 0.6 913.1 -0.4 87
2019-04-07 19:00:00 5.2 0 Calma 18 Sur 0.4 913.1 -0.6 82
2019-04-07 18:00:00 5.2 9 Sudoeste 62 Sudoeste 0.6 913.3 0.1 83
2019-04-07 17:00:00 4.8 15 Sudoeste 32 Oeste 0.6 913.5 0.3 83
2019-04-07 16:00:00 5.7 18 Sudoeste 37 Sudoeste 0.4 913.7 0.3 80
2019-04-07 15:00:00 7.3 19 Sudoeste 36 Sudoeste 0 913.2 0.1 71
2019-04-07 14:00:00 7.6 17 Sudoeste 36 Sudoeste 0 913.2 0.4 58
2019-04-07 13:00:00 7.7 14 Sudoeste 35 Sudoeste 0 913.4 1.1 60
2019-04-07 12:00:00 6.6 12 Sudoeste 24 Sudoeste 0 913.1 1.2 62
2019-04-07 11:00:00 7 12 Sudoeste 30 Sudoeste 0 912.8 1.8 54
2019-04-07 10:00:00 5.6 12 Sudoeste 25 Sudoeste 0 912.3 2 65
2019-04-07 09:00:00 3.4 15 Sudoeste 26 Sudoeste 0 911.9 2.1 77
2019-04-07 08:00:00 1 15 Sudoeste 30 Sudoeste 0 911 1.8 87
2019-04-07 07:00:00 1.1 18 Sudoeste 31 Sudoeste 0 910.3 1.3 88
2019-04-07 06:00:00 1.1 20 Sudoeste 32 Sudoeste 0 909.8 1.2 86
2019-04-07 05:00:00 1.3 22 Sudoeste 36 Sudoeste 0 909.2 0.7 87
2019-04-07 04:00:00 1.4 20 Sudoeste 33 Sudoeste 0 909 1 86
2019-04-07 03:00:00 1.4 22 Sudoeste 36 Sudoeste 0 908.6 0.9 86
2019-04-07 02:00:00 1.4 22 Sudoeste 35 Sudoeste 0 908.5 1.1 85
2019-04-07 01:00:00 1.7 18 Sudoeste 38 Sudoeste 0 908 1.1 84
2019-04-07 00:00:00 2.6 23 Sudoeste 39 Sudoeste 0 907.7 1 81
2019-04-06 23:00:00 2.8 22 Sudoeste 45 Oeste 0 907.4 1.3 80
2019-04-06 22:00:00 2.8 15 Sudoeste 27 Sudoeste 0 906.9 1.6 78
2019-04-06 21:00:00 3.4 14 Sudoeste 34 Sudoeste 0 906.7 2.2 71
2019-04-06 20:00:00 4.8 23 Oeste 49 Oeste 0 906.1 2.2 65
2019-04-06 19:00:00 5.5 19 Oeste 49 Oeste 0 905.3 1.6 63
2019-04-06 18:00:00 6.9 25 Oeste 56 Oeste 0 904.5 1.1 57
2019-04-06 17:00:00 6.5 26 Oeste 55 Sudoeste 0 903.9 0.9 68
2019-04-06 16:00:00 5.9 25 Sudoeste 60 Oeste 0 903.7 1 72
2019-04-06 15:00:00 5.5 25 Sudoeste 51 Sudoeste 0 903.4 0.9 76
2019-04-06 14:00:00 5.3 26 Sudoeste 45 Sudoeste 0 903 0.9 80
2019-04-06 13:00:00 4.2 20 Sudoeste 58 Noroeste 0.2 902.7 0.9 87
2019-04-06 12:00:00 3 26 Sudoeste 55 Sudoeste 0 902.5 0.9 87
2019-04-06 11:00:00 2.3 21 Sudoeste 49 Sudoeste 0.8 902.1 0.3 88
2019-04-06 10:00:00 2 25 Sudoeste 55 Sudoeste 0.4 901.8 -0.2 89
2019-04-06 09:00:00 1.7 19 Sudoeste 39 Sudoeste 0.4 901.6 -0.5 89
2019-04-06 08:00:00 1.3 23 Sudoeste 48 Sudoeste 0.2 901.8 -0.8 90
2019-04-06 07:00:00 1.2 20 Sudoeste 38 Sudoeste 0.8 902 -1 90
2019-04-06 06:00:00 1.1 14 Sudoeste 35 Sudoeste 0.6 902.1 -1.3 90
2019-04-06 05:00:00 1.3 16 Sudoeste 36 Sudoeste 0.8 902.6 -1.3 88
2019-04-06 04:00:00 2 17 Sudoeste 28 Sudoeste 0 903 -0.8 88
2019-04-06 03:00:00 2.2 17 Sudoeste 31 Sudoeste 0 903.4 -0.2 87
2019-04-06 02:00:00 2.3 17 Sudoeste 34 Sudoeste 0 903.9 0.4 86
2019-04-06 01:00:00 2.2 18 Sudoeste 31 Sudoeste 0 903.8 0.8 84
2019-04-06 00:00:00 2.3 16 Sudoeste 31 Sudoeste 0 903.6 1.5 86
2019-04-05 23:00:00 2.2 19 Sudoeste 34 Sudoeste 0 903.5 1.6 85
2019-04-05 22:00:00 2.7 20 Sudoeste 32 Oeste 0 903 1.5 84
2019-04-05 21:00:00 3 15 Sudoeste 24 Sudoeste 0 902.1 0.7 82
2019-04-05 20:00:00 4.6 14 Sudoeste 27 Oeste 0 901.9 0.8 77
2019-04-05 19:00:00 5.2 10 Oeste 33 Sudoeste 0 901.5 0.6 72
2019-04-05 18:00:00 5.6 11 Oeste 53 Sudoeste 0 901.4 -0.1 78
2019-04-05 17:00:00 5.9 32 Sudoeste 62 Sudoeste 0 901.1 0 64
2019-04-05 16:00:00 7.9 13 Sudoeste 35 Sudoeste 0 900.9 -0.5 55
2019-04-05 15:00:00 5.8 21 Oeste 40 Oeste 0 901.5 -0.2 71
2019-04-05 14:00:00 7.5 19 Sudoeste 39 Sudoeste 0 901.1 0.1 51
2019-04-05 13:00:00 5.3 16 Oeste 38 Noroeste 0 901.4 0.8 66
2019-04-05 12:00:00 4.1 14 Oeste 37 Sudoeste 0 901.7 1.3 69
2019-04-05 11:00:00 4.3 18 Sudoeste 40 Sudoeste 0 901 1.1 71
2019-04-05 10:00:00 2.9 18 Sudoeste 34 Sudoeste 0 900.6 1.1 80
2019-04-05 09:00:00 1.7 17 Sudoeste 50 Oeste 0 900.4 1 85
2019-04-05 08:00:00 1.2 18 Sudoeste 36 Sudoeste 0 899.9 0.5 88
2019-04-05 07:00:00 1.7 21 Sudoeste 35 Sudoeste 0 899.5 0 87
2019-04-05 06:00:00 2.4 10 Oeste 32 Sudoeste 0.2 899.4 -0.3 86
2019-04-05 05:00:00 3.2 11 Sudoeste 35 Sudoeste 0.2 899.4 -0.6 86
2019-04-05 04:00:00 3.5 16 Sudoeste 35 Sudoeste 0.4 899.5 -1.1 90
2019-04-05 03:00:00 3.4 17 Sudoeste 39 Sur 0.4 899.7 -1.3 90
2019-04-05 02:00:00 3.2 17 Sur 32 Sur 0 900 -1.6 90
2019-04-05 01:00:00 2.5 12 Sur 28 Sudoeste 2.4 900.6 -1.8 90
2019-04-05 00:00:00 2.8 12 Sur 28 Sur 1.4 901 -1.7 89
2019-04-04 23:00:00 2.7 12 Sur 39 Sudoeste 0.4 901.6 -1.8 90
2019-04-04 22:00:00 2.5 20 Sudoeste 37 Sudoeste 0.6 902.4 -1.5 88
2019-04-04 21:00:00 2.2 12 Sudoeste 30 Sur 0.6 902.7 -1.7 88
2019-04-04 20:00:00 2.4 13 Sudoeste 26 Sudoeste 1 903.4 -1.3 87
2019-04-04 19:00:00 3 15 Sudoeste 32 Sudoeste 1.2 903.9 -1 86
2019-04-04 18:00:00 4.4 15 Sudoeste 38 Sudoeste 0.2 904.4 -1.3 80
2019-04-04 17:00:00 5.6 22 Sudoeste 46 Oeste 0 904.7 -1.5 66
2019-04-04 16:00:00 6.9 25 Oeste 44 Oeste 0 904.9 -2.2 53
2019-04-04 15:00:00 7.4 23 Sudoeste 54 Sudoeste 0 905.7 -1.9 48
2019-04-04 14:00:00 7.3 21 Sudoeste 40 Sudoeste 0 906.2 -1.7 50
2019-04-04 13:00:00 6.4 16 Sudoeste 33 Sudoeste 0 907.1 -0.9 50
2019-04-04 12:00:00 5.7 14 Sudoeste 29 Oeste 0 907.6 -0.2 54
2019-04-04 11:00:00 4.9 14 Oeste 30 Sudoeste 0 907.9 0.2 60
2019-04-04 10:00:00 3.8 14 Sudoeste 30 Sudoeste 0 908 0.3 60
2019-04-04 09:00:00 1.5 18 Sudoeste 31 Sudoeste 0 907.8 0 71
2019-04-04 08:00:00 -1 7 Sur 23 Oeste 0 907.7 -0.8 76
2019-04-04 07:00:00 -0.3 12 Sudoeste 26 Oeste 0 907.7 -0.9 68
2019-04-04 06:00:00 0.1 14 Sudoeste 25 Sudoeste 0 907.8 -1.5 64
2019-04-04 05:00:00 -2 10 Sur 20 Sur 0 908.5 -1.5 69
2019-04-04 04:00:00 0.5 8 Oeste 26 Oeste 0 908.6 -1.9 60
2019-04-04 03:00:00 0.9 15 Noroeste 22 Noroeste 0 909.3 -1.6 58
2019-04-04 02:00:00 1.5 14 Oeste 28 Oeste 0 910 -1.2 57
2019-04-04 01:00:00 1.6 12 Oeste 19 Noroeste 0 910.5 -0.3 57
2019-04-04 00:00:00 1.6 5 Oeste 17 Noroeste 0 910.9 0.6 57
2019-04-03 23:00:00 2.6 12 Noroeste 32 Noroeste 0 911.2 1.1 56
2019-04-03 22:00:00 3.4 13 Noroeste 33 Noroeste 0 910.8 0.8 57
2019-04-03 21:00:00 4.4 13 Noroeste 35 Noroeste 0 910.3 0.2 55
2019-04-03 20:00:00 6 15 Noroeste 35 Norte 0 910.1 0.1 42
2019-04-03 19:00:00 7.8 16 Norte 39 Noroeste 0 910 -0.4 38
2019-04-03 18:00:00 9 24 Noroeste 50 Norte 0 910.1 -0.9 30
2019-04-03 17:00:00 9.9 18 Norte 48 Norte 0 910 -1.4 36
2019-04-03 16:00:00 9.6 18 Noroeste 44 Norte 0 910.4 -1.6 35
2019-04-03 15:00:00 11.6 18 Norte 37 Noroeste 0 911 -1.5 36
2019-04-03 14:00:00 10.8 22 Noroeste 42 Noroeste 0 911.4 -1.3 35
2019-04-03 13:00:00 10.6 19 Noroeste 36 Norte 0 912 -0.8 35
2019-04-03 12:00:00 10.1 15 Norte 31 Norte 0 912.5 -0.3 37
2019-04-03 11:00:00 8.2 5 Nordeste 13 Nordeste 0 912.7 -0.1 45
2019-04-03 10:00:00 5.2 3 Este 19 Oeste 0 912.8 -0.1 60
2019-04-03 09:00:00 0.1 6 Sur 17 Sudoeste 0 912.8 -0.3 84
2019-04-03 08:00:00 -1.2 5 Norte 10 Sur 0 912.8 -0.8 85
2019-04-03 07:00:00 -0.9 4 Sur 9 Sur 0 912.9 -1.1 86
2019-04-03 06:00:00 -0.8 4 Sudoeste 8 Sudeste 0 913.1 -1.6 84
2019-04-03 05:00:00 1.7 3 Noroeste 12 Sudeste 0 913.6 -1.7 78
2019-04-03 04:00:00 3 5 Sur 19 Sudoeste 0 914 -1.9 71
2019-04-03 03:00:00 5.2 10 Oeste 18 Oeste 0 914.7 -1.5 59
2019-04-03 02:00:00 5.7 11 Sudoeste 22 Oeste 0 915.3 -0.8 64
2019-04-03 01:00:00 7.2 13 Oeste 26 Oeste 0 915.9 -0.1 61
2019-04-03 00:00:00 7.8 12 Oeste 27 Oeste 0 916.2 0.3 62
2019-04-02 23:00:00 8.8 14 Oeste 28 Oeste 0 916.1 0.6 58
2019-04-02 22:00:00 9.2 9 Sudoeste 26 Oeste 0 916 0.7 52
2019-04-02 21:00:00 10.8 12 Oeste 32 Oeste 0 915.9 0.7 44
2019-04-02 20:00:00 13.2 20 Oeste 39 Oeste 0 915.5 -0.2 34
2019-04-02 19:00:00 15.7 24 Oeste 48 Oeste 0 915.3 -1 26
2019-04-02 18:00:00 17.4 13 Norte 25 Noroeste 0 915.2 -1.7 31
2019-04-02 17:00:00 15.5 6 Norte 21 Norte 0 915.7 -1.7 40
2019-04-02 16:00:00 15.5 6 Sudoeste 24 Sudoeste 0 916.3 -2 37
2019-04-02 15:00:00 17.3 13 Sudoeste 28 Sudoeste 0 916.9 -1.9 34
2019-04-02 14:00:00 17.1 5 Noroeste 15 Sudoeste 0 917.4 -1.2 32
2019-04-02 13:00:00 15.4 6 Sudoeste 17 Sudeste 0 918.3 -0.2 36
2019-04-02 12:00:00 14.1 8 Nordeste 18 Nordeste 0 918.8 0.3 42
2019-04-02 11:00:00 12.2 8 Este 16 Nordeste 0 918.6 0.6 43
2019-04-02 10:00:00 8.1 4 Sudeste 10 Sudeste 0 918.5 0.5 67
2019-04-02 09:00:00 2.5 5 Sudeste 8 Sur 0 918.5 0.6 82
2019-04-02 08:00:00 1.9 4 Sudoeste 12 Sudoeste 0 918 0.1 88
2019-04-02 07:00:00 -0.6 4 Sur 8 Sudeste 0 918 -0.2 87
2019-04-02 06:00:00 1.8 0 Calma 7 Sudeste 0 917.9 -0.4 85
2019-04-02 05:00:00 3.6 3 Norte 8 Sudoeste 0 917.9 -0.2 78
2019-04-02 04:00:00 5.1 4 Sur 6 Este 0 918.2 0 74
2019-04-02 03:00:00 5.4 4 Sudeste 9 Sudoeste 0 918.3 0.6 76
2019-04-02 02:00:00 6.2 3 Sur 9 Norte 0 918.1 0.6 74
2019-04-02 01:00:00 7.9 5 Nordeste 22 Sudoeste 0 918.2 1.1 69
2019-04-02 00:00:00 9.9 15 Sudoeste 34 Sudoeste 0 917.7 1.1 63
2019-04-01 23:00:00 10.3 19 Sudoeste 39 Sudoeste 0 917.5 1.3 60
2019-04-01 22:00:00 10.6 15 Sudoeste 25 Sudoeste 0 917.1 1.4 56
2019-04-01 21:00:00 10.8 12 Sudoeste 20 Sudoeste 0 916.6 1.2 56
2019-04-01 20:00:00 12.5 13 Sudoeste 20 Sur 0 916.2 0.6 51
2019-04-01 19:00:00 13.6 11 Sudoeste 25 Oeste 0 915.7 -0.1 47
2019-04-01 18:00:00 15.3 8 Este 19 Este 0 915.4 -0.3 42
2019-04-01 17:00:00 14 10 Noroeste 32 Noroeste 0.2 915.6 -0.6 57
2019-04-01 16:00:00 12.8 22 Noroeste 38 Noroeste 0 915.8 -1 53
2019-04-01 15:00:00 15.5 4 Oeste 18 Sudoeste 0 915.7 -1.7 36
2019-04-01 14:00:00 15.3 4 Este 19 Sur 0 916.2 -1.3 39
2019-04-01 13:00:00 15.2 5 Oeste 12 Sudoeste 0 916.8 -0.7 46
2019-04-01 12:00:00 12.7 4 Nordeste 10 Sudoeste 0 917.4 0.3 50
2019-04-01 11:00:00 10.9 4 Nordeste 9 Nordeste 0 917.5 0.9 59
2019-04-01 10:00:00 6.8 0 Calma 6 Sudeste 0 917.5 1.1 75
2019-04-01 09:00:00 2.9 4 Noroeste 8 Noroeste 0 917.1 0.8 89
2019-04-01 08:00:00 0 2 Sudoeste 7 Sudoeste 0 916.6 0.2 87
2019-04-01 07:00:00 1.7 3 Sur 7 Sur 0 916.4 -0.1 88
2019-04-01 06:00:00 1.8 5 Sur 6 Sur 0 916.3 -0.2 84
2019-04-01 05:00:00 3.4 4 Sudoeste 5 Sudoeste 0 916.4 0 83
2019-04-01 04:00:00 3.8 0 Calma 5 Norte 0 916.5 0.3 79
2019-04-01 03:00:00 4.7 4 Noroeste 8 Norte 0 916.5 0.8 79
2019-04-01 02:00:00 4.7 2 Norte 8 Noroeste 0 916.4 0.8 73
2019-04-01 01:00:00 4.9 2 Norte 10 Norte 0 916.2 1.2 64
2019-04-01 00:00:00 6.4 5 Sur 8 Sudoeste 0 915.7 1.4 58
2019-03-31 23:00:00 8 3 Sur 14 Norte 0 915.6 1.5 53
2019-03-31 22:00:00 10.3 3 Sur 6 Sudoeste 0 915 1 42
2019-03-31 21:00:00 12.1 3 Sudeste 11 Sudeste 0 914.3 0.2 34
2019-03-31 20:00:00 15.7 7 Este 26 Este 0 914.1 -0.2 26
2019-03-31 19:00:00 17.5 6 Nordeste 26 Norte 0 914 -0.8 23
2019-03-31 18:00:00 17.1 10 Este 28 Nordeste 0 914.1 -1.2 23
2019-03-31 17:00:00 16.8 9 Este 22 Sudeste 0 914.3 -1.9 23
2019-03-31 16:00:00 16.1 10 Este 32 Este 0 914.8 -2.1 26
2019-03-31 15:00:00 17.9 11 Este 31 Este 0 915.3 -2.1 25
2019-03-31 14:00:00 16.7 9 Este 33 Nordeste 0 916.2 -1.3 30
2019-03-31 13:00:00 14.9 9 Nordeste 27 Nordeste 0 916.9 -0.6 32
2019-03-31 12:00:00 13.3 13 Este 29 Este 0 917.4 0 35
2019-03-31 11:00:00 11.7 11 Nordeste 24 Nordeste 0 917.5 0.2 39
2019-03-31 10:00:00 9.6 7 Este 18 Nordeste 0 917.5 0.3 48
2019-03-31 09:00:00 4.8 0 Calma 5 Sur 0 917.4 0.1 72
2019-03-31 08:00:00 1.7 2 Sur 5 Sudeste 0 917.3 -0.3 78
2019-03-31 07:00:00 2.1 2 Sudoeste 6 Sur 0 917.2 -0.9 80
2019-03-31 06:00:00 1.8 2 Sudeste 10 Este 0 917.3 -1.2 78
2019-03-31 05:00:00 1.7 3 Oeste 5 Noroeste 0 917.6 -1.2 78
2019-03-31 03:00:00 4.9 0 Calma 8 Sudeste 0 918.5 -0.9 67
2019-03-31 01:00:00 7.3 5 Sur 7 Sur 0 918.8 -0.6 59
2019-03-31 00:00:00 7.5 3 Sur 6 Sudoeste 0 919.1 -0.1 60
2019-03-30 23:00:00 9 3 Sur 6 Sur 0 919.4 0.5 55
2019-03-30 22:00:00 8.7 3 Este 10 Sudeste 0 919.4 0.7 60
2019-03-30 21:00:00 9.8 5 Sur 9 Sur 0 919.2 0.7 57
2019-03-30 20:00:00 11.1 4 Sur 13 Noroeste 0 918.9 0.3 51
2019-03-30 19:00:00 12.6 10 Noroeste 24 Noroeste 0 918.7 -0.5 45
2019-03-30 18:00:00 14.7 4 Sudoeste 14 Sur 0 918.5 -1 37
2019-03-30 17:00:00 14.2 9 Sur 33 Sudoeste 0 918.6 -1.4 37
2019-03-30 16:00:00 14.3 10 Sudoeste 30 Sudoeste 0 919.2 -1.4 37
2019-03-30 15:00:00 15.3 6 Este 15 Este 0 919.5 -2 33
2019-03-30 14:00:00 15.2 5 Nordeste 19 Este 0 920 -1.9 38
2019-03-30 13:00:00 16.5 8 Este 27 Este 0 920.6 -1.4 33
2019-03-30 12:00:00 15 9 Este 23 Este 0 921.5 -0.6 36
2019-03-30 11:00:00 13.2 10 Este 21 Este 0 921.9 0 38
2019-03-30 10:00:00 10.9 7 Este 17 Este 0 922 0.5 42
2019-03-30 09:00:00 7.8 7 Este 15 Este 0 922.1 1 52
2019-03-30 08:00:00 5.2 2 Norte 7 Sudeste 0 921.9 0.7 65
2019-03-30 07:00:00 3.6 4 Sur 8 Sudeste 0 921.5 0.2 71
2019-03-30 06:00:00 3.4 0 Calma 5 Noroeste 0 921.1 -0.3 71
2019-03-30 05:00:00 3.5 4 Sudeste 5 Sudeste 0 921.2 -0.4 67
2019-03-30 04:00:00 3.9 3 Nordeste 6 Nordeste 0 921.3 -0.6 66
2019-03-30 03:00:00 5 3 Oeste 8 Norte 0 921.4 -0.6 60
2019-03-30 02:00:00 5.4 3 Norte 15 Sudoeste 0 921.6 -0.4 54
2019-03-30 01:00:00 6.2 6 Sudoeste 15 Sur 0 921.9 -0.3 50
2019-03-30 00:00:00 7.7 2 Norte 8 Sudeste 0 922 -0.1 48
2019-03-29 23:00:00 10.1 4 Norte 13 Sudoeste 0 922 0.2 42
2019-03-29 22:00:00 11.3 9 Sudoeste 14 Sudoeste 0 922.2 0.6 32
2019-03-29 21:00:00 11.5 7 Sur 17 Sudoeste 0 922.1 0.7 33
2019-03-29 20:00:00 13 9 Sudoeste 20 Sudoeste 0 921.8 0.5 30
2019-03-29 19:00:00 15.7 15 Sudoeste 25 Sur 0 921.6 -0.2 25
2019-03-29 18:00:00 17.6 12 Sur 29 Sur 0 921.4 -1.1 23
2019-03-29 17:00:00 18.4 13 Sur 30 Sudoeste 0 921.3 -1.8 24
2019-03-29 16:00:00 18.4 6 Oeste 28 Sudoeste 0 921.8 -1.9 25
2019-03-29 15:00:00 18.6 10 Sudoeste 31 Sur 0 922.5 -2 26
2019-03-29 14:00:00 18.2 12 Sudoeste 26 Sur 0 923.1 -2 25
2019-03-29 13:00:00 17.6 8 Sudoeste 27 Sur 0 923.7 -1.7 28
2019-03-29 12:00:00 15.9 4 Norte 12 Este 0 924.5 -1.1 35
2019-03-29 11:00:00 12.9 4 Nordeste 12 Este 0 925.1 -0.7 35
2019-03-29 10:00:00 10.1 3 Sur 12 Este 0 925.4 -0.2 41
2019-03-29 09:00:00 6.8 2 Sudeste 5 Sur 0 925.6 0 53
2019-03-29 08:00:00 0.6 0 Calma 13 Sudeste 0 925.8 0.3 77
2019-03-29 07:00:00 -2.5 0 Calma 5 Noroeste 0 925.6 -0.1 83
2019-03-29 06:00:00 -1.9 0 Calma 10 Sur 0 925.6 -0.3 81
2019-03-29 05:00:00 -1.6 5 Sur 8 Sur 0 925.5 -0.8 83
2019-03-29 04:00:00 -1.3 0 Calma 9 Sudeste 0 925.7 -1.1 78
2019-03-29 03:00:00 0.3 3 Sudoeste 6 Sur 0 925.9 -1.2 77
2019-03-29 02:00:00 0.6 4 Noroeste 6 Norte 0 926.3 -0.7 74
2019-03-29 01:00:00 1.9 2 Sur 7 Sudeste 0 926.8 0 70
2019-03-29 00:00:00 2 3 Norte 8 Este 0 927.1 0.6 64
2019-03-28 23:00:00 4.2 3 Nordeste 8 Este 0 927 1.1 59
2019-03-28 22:00:00 5.3 3 Sur 6 Oeste 0 926.8 1.2 52
2019-03-28 21:00:00 9.2 4 Noroeste 6 Noroeste 0 926.5 1 42
2019-03-28 20:00:00 12 4 Sudeste 16 Este 0 925.9 0.2 32
2019-03-28 19:00:00 15.9 10 Este 27 Este 0 925.6 -0.7 24
2019-03-28 18:00:00 17.3 15 Este 35 Este 0 925.5 -1.3 20
2019-03-28 17:00:00 18 13 Nordeste 31 Este 0 925.7 -2.1 18
2019-03-28 16:00:00 17.9 14 Este 32 Este 0 926.3 -2.1 18
2019-03-28 15:00:00 17.6 13 Nordeste 37 Este 0 926.8 -2.2 19
2019-03-28 14:00:00 16.3 14 Este 36 Nordeste 0 927.8 -1.7 19
2019-03-28 13:00:00 15 15 Este 35 Este 0 928.4 -1.1 20
2019-03-28 12:00:00 13 15 Nordeste 41 Nordeste 0 929 -0.8 21
2019-03-28 11:00:00 10.9 19 Nordeste 37 Este 0 929.5 -0.2 25
2019-03-28 10:00:00 8.4 12 Este 29 Nordeste 0 929.5 0.2 33
2019-03-28 09:00:00 6 9 Este 18 Este 0 929.8 0.8 36
2019-03-28 08:00:00 3.1 5 Sudeste 10 Sur 0 929.7 1.1 48
2019-03-28 07:00:00 -0.3 4 Sur 8 Nordeste 0 929.3 0.7 52
2019-03-28 06:00:00 -0.2 3 Nordeste 148 Norte -- 929 0.1 51
2019-03-28 05:00:00 0.4 6 Norte 14 Norte 0 928.6 -0.3 50
2019-03-28 04:00:00 1.5 5 Nordeste 12 Nordeste 0 928.6 -0.2 41
2019-03-28 03:00:00 2.8 6 Este 16 Este 0 928.9 0.4 37
2019-03-28 02:00:00 4 9 Este 18 Nordeste 0 928.9 0.9 37
2019-03-28 01:00:00 4.3 6 Este 17 Este 0 928.8 1.1 38
2019-03-28 00:00:00 4.6 6 Nordeste 13 Nordeste 0 928.5 1.2 39
2019-03-27 23:00:00 5.9 5 Nordeste 10 Este 0 928 1.3 35
2019-03-27 22:00:00 7.4 0 Calma 16 Este 0 927.7 1.6 33
2019-03-27 21:00:00 9.5 5 Nordeste 13 Nordeste 0 927.3 1.9 28
2019-03-27 20:00:00 12.6 6 Este 20 Nordeste 0 926.7 1.4 22
2019-03-27 19:00:00 16 10 Este 34 Este 0 926.1 0.6 16
2019-03-27 18:00:00 18.1 14 Este 42 Sudeste 0 925.4 -0.3 13
2019-03-27 17:00:00 18.7 19 Este 36 Nordeste 0 925.3 -1 12
2019-03-27 16:00:00 19 17 Nordeste 42 Este 0 925.5 -1.2 12
2019-03-27 15:00:00 18.7 19 Este 44 Nordeste 0 925.7 -1.6 14
2019-03-27 14:00:00 17.7 19 Nordeste 51 Nordeste 0 926.3 -1.1 10
2019-03-27 13:00:00 16.4 21 Este 41 Este 0 926.7 -0.8 11
2019-03-27 12:00:00 14.1 15 Nordeste 40 Este 0 927.3 0.1 17
2019-03-27 11:00:00 12.3 16 Nordeste 33 Nordeste 0 927.4 0.4 18
2019-03-27 10:00:00 10.4 12 Este 23 Este 0 927.5 1.3 22
2019-03-27 09:00:00 7.3 5 Nordeste 13 Este 0 927.2 1.1 38
2019-03-27 08:00:00 3.6 3 Sur 13 Nordeste 0 927 1.1 52
2019-03-27 07:00:00 0.8 6 Este 15 Este 0 926.2 0.3 60
2019-03-27 06:00:00 0.2 2 Este 9 Norte 0 926.1 0.3 57
2019-03-27 05:00:00 0.3 0 Calma 6 Sur 0 925.9 -0.1 46
2019-03-27 04:00:00 0.4 4 Sudoeste 9 Sudoeste 0 925.9 -0.1 41
2019-03-27 03:00:00 -0.1 4 Nordeste 13 Norte 0 925.8 0 39
2019-03-27 02:00:00 -0.1 3 Este 8 Nordeste 0 926 0.6 42
2019-03-27 01:00:00 1.2 2 Oeste 8 Noroeste 0 926 1.1 39
2019-03-27 00:00:00 2.3 0 Calma 8 Noroeste 0 925.8 1.4 35